sensor_id;sensor_type;location;lat;lon;timestamp;P1;durP1;ratioP1;P2;durP2;ratioP2
76788;SDS011;65740;52.464;13.446;2023-02-28T00:00:51;60.60;;;54.10;;
76788;SDS011;65740;52.464;13.446;2023-02-28T00:03:17;61.60;;;53.40;;
76788;SDS011;65740;52.464;13.446;2023-02-28T00:05:43;59.60;;;53.30;;
76788;SDS011;65740;52.464;13.446;2023-02-28T00:08:08;59.03;;;52.03;;
76788;SDS011;65740;52.464;13.446;2023-02-28T00:10:34;59.83;;;51.33;;
76788;SDS011;65740;52.464;13.446;2023-02-28T00:13:04;55.60;;;49.00;;
76788;SDS011;65740;52.464;13.446;2023-02-28T00:15:31;55.40;;;49.50;;
76788;SDS011;65740;52.464;13.446;2023-02-28T00:17:58;52.57;;;46.90;;
76788;SDS011;65740;52.464;13.446;2023-02-28T00:20:24;52.33;;;46.77;;
76788;SDS011;65740;52.464;13.446;2023-02-28T00:22:50;50.90;;;45.33;;
76788;SDS011;65740;52.464;13.446;2023-02-28T00:25:18;49.53;;;44.03;;
76788;SDS011;65740;52.464;13.446;2023-02-28T00:27:47;47.83;;;42.87;;
76788;SDS011;65740;52.464;13.446;2023-02-28T00:30:14;49.23;;;43.67;;
76788;SDS011;65740;52.464;13.446;2023-02-28T00:32:41;47.17;;;42.07;;
76788;SDS011;65740;52.464;13.446;2023-02-28T00:35:07;48.73;;;43.50;;
76788;SDS011;65740;52.464;13.446;2023-02-28T00:37:34;44.37;;;39.57;;
76788;SDS011;65740;52.464;13.446;2023-02-28T00:40:00;46.57;;;41.47;;
76788;SDS011;65740;52.464;13.446;2023-02-28T00:42:26;44.60;;;39.60;;
76788;SDS011;65740;52.464;13.446;2023-02-28T00:44:51;43.67;;;39.07;;
76788;SDS011;65740;52.464;13.446;2023-02-28T00:47:17;44.67;;;38.07;;
76788;SDS011;65740;52.464;13.446;2023-02-28T00:49:42;44.57;;;38.20;;
76788;SDS011;65740;52.464;13.446;2023-02-28T00:52:08;41.93;;;37.43;;
76788;SDS011;65740;52.464;13.446;2023-02-28T00:54:34;41.40;;;36.97;;
76788;SDS011;65740;52.464;13.446;2023-02-28T00:57:00;40.90;;;36.60;;
76788;SDS011;65740;52.464;13.446;2023-02-28T00:59:26;39.63;;;35.33;;
76788;SDS011;65740;52.464;13.446;2023-02-28T01:01:51;38.67;;;34.70;;
76788;SDS011;65740;52.464;13.446;2023-02-28T01:04:17;39.63;;;33.87;;
76788;SDS011;65740;52.464;13.446;2023-02-28T01:06:42;37.20;;;32.27;;
76788;SDS011;65740;52.464;13.446;2023-02-28T01:09:08;36.70;;;32.73;;
76788;SDS011;65740;52.464;13.446;2023-02-28T01:11:34;36.93;;;32.93;;
76788;SDS011;65740;52.464;13.446;2023-02-28T01:14:00;36.30;;;32.37;;
76788;SDS011;65740;52.464;13.446;2023-02-28T01:16:27;35.40;;;31.70;;
76788;SDS011;65740;52.464;13.446;2023-02-28T01:18:52;34.80;;;31.13;;
76788;SDS011;65740;52.464;13.446;2023-02-28T01:21:19;34.40;;;30.50;;
76788;SDS011;65740;52.464;13.446;2023-02-28T01:23:46;33.10;;;29.70;;
76788;SDS011;65740;52.464;13.446;2023-02-28T01:26:16;31.43;;;28.23;;
76788;SDS011;65740;52.464;13.446;2023-02-28T01:28:44;30.77;;;27.67;;
76788;SDS011;65740;52.464;13.446;2023-02-28T01:31:10;33.87;;;29.10;;
76788;SDS011;65740;52.464;13.446;2023-02-28T01:33:36;31.97;;;28.57;;
76788;SDS011;65740;52.464;13.446;2023-02-28T01:36:07;31.47;;;28.17;;
76788;SDS011;65740;52.464;13.446;2023-02-28T01:38:36;30.80;;;27.50;;
76788;SDS011;65740;52.464;13.446;2023-02-28T01:41:01;30.47;;;27.20;;
76788;SDS011;65740;52.464;13.446;2023-02-28T01:43:29;29.20;;;26.13;;
76788;SDS011;65740;52.464;13.446;2023-02-28T01:46:15;29.83;;;26.47;;
76788;SDS011;65740;52.464;13.446;2023-02-28T01:48:42;28.97;;;25.60;;
76788;SDS011;65740;52.464;13.446;2023-02-28T01:51:29;28.73;;;25.60;;
76788;SDS011;65740;52.464;13.446;2023-02-28T01:54:03;26.63;;;23.47;;
76788;SDS011;65740;52.464;13.446;2023-02-28T01:56:38;26.47;;;23.87;;
76788;SDS011;65740;52.464;13.446;2023-02-28T01:59:10;26.77;;;23.90;;
76788;SDS011;65740;52.464;13.446;2023-02-28T02:01:37;26.10;;;23.30;;
76788;SDS011;65740;52.464;13.446;2023-02-28T02:04:03;25.10;;;22.30;;
76788;SDS011;65740;52.464;13.446;2023-02-28T02:06:37;23.83;;;21.33;;
76788;SDS011;65740;52.464;13.446;2023-02-28T02:09:07;24.30;;;21.80;;
76788;SDS011;65740;52.464;13.446;2023-02-28T02:11:33;24.43;;;21.83;;
76788;SDS011;65740;52.464;13.446;2023-02-28T02:14:10;23.77;;;21.17;;
76788;SDS011;65740;52.464;13.446;2023-02-28T02:25:33;21.10;;;18.90;;
76788;SDS011;65740;52.464;13.446;2023-02-28T02:31:21;22.07;;;19.73;;
76788;SDS011;65740;52.464;13.446;2023-02-28T02:36:47;19.47;;;17.37;;
76788;SDS011;65740;52.464;13.446;2023-02-28T02:42:14;18.80;;;16.77;;
76788;SDS011;65740;52.464;13.446;2023-02-28T02:45:09;19.27;;;17.20;;
76788;SDS011;65740;52.464;13.446;2023-02-28T02:47:40;19.13;;;17.10;;
76788;SDS011;65740;52.464;13.446;2023-02-28T02:50:08;18.97;;;16.97;;
76788;SDS011;65740;52.464;13.446;2023-02-28T02:52:40;18.10;;;16.20;;
76788;SDS011;65740;52.464;13.446;2023-02-28T02:55:10;17.50;;;15.70;;
76788;SDS011;65740;52.464;13.446;2023-02-28T03:00:16;16.97;;;15.17;;
76788;SDS011;65740;52.464;13.446;2023-02-28T03:02:44;17.20;;;15.50;;
76788;SDS011;65740;52.464;13.446;2023-02-28T03:05:15;17.20;;;15.50;;
76788;SDS011;65740;52.464;13.446;2023-02-28T03:07:45;17.13;;;15.33;;
76788;SDS011;65740;52.464;13.446;2023-02-28T03:13:00;16.50;;;14.73;;
76788;SDS011;65740;52.464;13.446;2023-02-28T03:15:33;15.37;;;13.87;;
76788;SDS011;65740;52.464;13.446;2023-02-28T03:18:10;16.30;;;14.80;;
76788;SDS011;65740;52.464;13.446;2023-02-28T03:23:44;14.80;;;12.27;;
76788;SDS011;65740;52.464;13.446;2023-02-28T03:26:24;15.33;;;13.73;;
76788;SDS011;65740;52.464;13.446;2023-02-28T03:28:54;14.53;;;13.03;;
76788;SDS011;65740;52.464;13.446;2023-02-28T03:31:37;13.73;;;12.33;;
76788;SDS011;65740;52.464;13.446;2023-02-28T03:36:52;13.73;;;12.33;;
76788;SDS011;65740;52.464;13.446;2023-02-28T03:39:22;12.80;;;11.50;;
76788;SDS011;65740;52.464;13.446;2023-02-28T03:44:34;13.13;;;11.90;;
76788;SDS011;65740;52.464;13.446;2023-02-28T03:47:10;12.93;;;11.63;;
76788;SDS011;65740;52.464;13.446;2023-02-28T03:49:46;11.83;;;10.63;;
76788;SDS011;65740;52.464;13.446;2023-02-28T03:52:36;14.07;;;12.13;;
76788;SDS011;65740;52.464;13.446;2023-02-28T03:55:10;12.47;;;11.17;;
76788;SDS011;65740;52.464;13.446;2023-02-28T04:02:32;12.47;;;11.17;;
76788;SDS011;65740;52.464;13.446;2023-02-28T04:04:59;11.63;;;10.37;;
76788;SDS011;65740;52.464;13.446;2023-02-28T04:07:28;11.50;;;10.30;;
76788;SDS011;65740;52.464;13.446;2023-02-28T04:09:54;12.60;;;11.17;;
76788;SDS011;65740;52.464;13.446;2023-02-28T04:12:20;11.47;;;10.03;;
76788;SDS011;65740;52.464;13.446;2023-02-28T04:14:48;10.77;;;9.67;;
76788;SDS011;65740;52.464;13.446;2023-02-28T04:17:14;11.10;;;9.80;;
76788;SDS011;65740;52.464;13.446;2023-02-28T04:19:39;10.27;;;9.17;;
76788;SDS011;65740;52.464;13.446;2023-02-28T04:22:05;10.33;;;9.33;;
76788;SDS011;65740;52.464;13.446;2023-02-28T04:24:30;9.73;;;8.73;;
76788;SDS011;65740;52.464;13.446;2023-02-28T04:26:56;9.80;;;8.77;;
76788;SDS011;65740;52.464;13.446;2023-02-28T04:29:27;8.83;;;7.93;;
76788;SDS011;65740;52.464;13.446;2023-02-28T04:31:54;9.27;;;8.47;;
76788;SDS011;65740;52.464;13.446;2023-02-28T04:34:24;9.87;;;8.87;;
76788;SDS011;65740;52.464;13.446;2023-02-28T04:36:50;9.60;;;8.60;;
76788;SDS011;65740;52.464;13.446;2023-02-28T04:39:19;9.30;;;8.40;;
76788;SDS011;65740;52.464;13.446;2023-02-28T04:41:45;9.37;;;8.07;;
76788;SDS011;65740;52.464;13.446;2023-02-28T04:44:11;9.03;;;8.20;;
76788;SDS011;65740;52.464;13.446;2023-02-28T04:46:36;9.50;;;8.50;;
76788;SDS011;65740;52.464;13.446;2023-02-28T04:49:02;8.67;;;7.87;;
76788;SDS011;65740;52.464;13.446;2023-02-28T04:51:28;8.30;;;7.50;;
76788;SDS011;65740;52.464;13.446;2023-02-28T04:53:53;8.03;;;7.30;;
76788;SDS011;65740;52.464;13.446;2023-02-28T04:56:19;8.60;;;7.70;;
76788;SDS011;65740;52.464;13.446;2023-02-28T04:58:45;8.87;;;8.00;;
76788;SDS011;65740;52.464;13.446;2023-02-28T05:01:28;8.13;;;7.33;;
76788;SDS011;65740;52.464;13.446;2023-02-28T05:03:55;7.53;;;6.83;;
76788;SDS011;65740;52.464;13.446;2023-02-28T05:06:23;7.07;;;6.37;;
76788;SDS011;65740;52.464;13.446;2023-02-28T05:08:51;7.03;;;6.33;;
76788;SDS011;65740;52.464;13.446;2023-02-28T05:11:18;7.60;;;6.90;;
76788;SDS011;65740;52.464;13.446;2023-02-28T05:13:43;7.90;;;7.10;;
76788;SDS011;65740;52.464;13.446;2023-02-28T05:16:10;7.10;;;6.40;;
76788;SDS011;65740;52.464;13.446;2023-02-28T05:18:36;7.27;;;6.57;;
76788;SDS011;65740;52.464;13.446;2023-02-28T05:21:02;7.27;;;6.57;;
76788;SDS011;65740;52.464;13.446;2023-02-28T05:23:28;7.00;;;6.30;;
76788;SDS011;65740;52.464;13.446;2023-02-28T05:25:54;6.70;;;6.00;;
76788;SDS011;65740;52.464;13.446;2023-02-28T05:28:20;7.07;;;6.37;;
76788;SDS011;65740;52.464;13.446;2023-02-28T05:30:46;7.13;;;6.27;;
76788;SDS011;65740;52.464;13.446;2023-02-28T05:33:12;6.90;;;6.30;;
76788;SDS011;65740;52.464;13.446;2023-02-28T05:35:38;6.47;;;5.87;;
76788;SDS011;65740;52.464;13.446;2023-02-28T05:38:05;6.13;;;5.53;;
76788;SDS011;65740;52.464;13.446;2023-02-28T05:40:31;6.37;;;5.77;;
76788;SDS011;65740;52.464;13.446;2023-02-28T05:42:56;5.90;;;5.40;;
76788;SDS011;65740;52.464;13.446;2023-02-28T05:45:22;6.23;;;5.70;;
76788;SDS011;65740;52.464;13.446;2023-02-28T05:47:47;6.97;;;6.27;;
76788;SDS011;65740;52.464;13.446;2023-02-28T05:50:13;6.60;;;6.00;;
76788;SDS011;65740;52.464;13.446;2023-02-28T05:52:39;5.60;;;5.07;;
76788;SDS011;65740;52.464;13.446;2023-02-28T05:55:04;6.83;;;6.20;;
76788;SDS011;65740;52.464;13.446;2023-02-28T05:57:30;6.40;;;5.43;;
76788;SDS011;65740;52.464;13.446;2023-02-28T05:59:56;6.40;;;5.80;;
76788;SDS011;65740;52.464;13.446;2023-02-28T06:02:22;6.47;;;5.43;;
76788;SDS011;65740;52.464;13.446;2023-02-28T06:04:47;6.20;;;5.60;;
76788;SDS011;65740;52.464;13.446;2023-02-28T06:07:13;5.57;;;5.00;;
76788;SDS011;65740;52.464;13.446;2023-02-28T06:09:38;6.03;;;5.30;;
76788;SDS011;65740;52.464;13.446;2023-02-28T06:12:05;5.20;;;4.70;;
76788;SDS011;65740;52.464;13.446;2023-02-28T06:14:32;5.20;;;4.70;;
76788;SDS011;65740;52.464;13.446;2023-02-28T06:16:59;5.73;;;5.13;;
76788;SDS011;65740;52.464;13.446;2023-02-28T06:19:25;5.03;;;4.60;;
76788;SDS011;65740;52.464;13.446;2023-02-28T06:21:52;5.90;;;5.30;;
76788;SDS011;65740;52.464;13.446;2023-02-28T06:24:19;4.80;;;4.27;;
76788;SDS011;65740;52.464;13.446;2023-02-28T06:26:45;5.40;;;4.90;;
76788;SDS011;65740;52.464;13.446;2023-02-28T06:29:11;5.67;;;5.17;;
76788;SDS011;65740;52.464;13.446;2023-02-28T06:31:38;5.43;;;4.93;;
76788;SDS011;65740;52.464;13.446;2023-02-28T06:34:03;4.47;;;4.07;;
76788;SDS011;65740;52.464;13.446;2023-02-28T06:36:29;5.67;;;5.17;;
76788;SDS011;65740;52.464;13.446;2023-02-28T06:38:55;5.90;;;5.30;;
76788;SDS011;65740;52.464;13.446;2023-02-28T06:41:22;5.20;;;4.70;;
76788;SDS011;65740;52.464;13.446;2023-02-28T06:43:49;4.80;;;4.40;;
76788;SDS011;65740;52.464;13.446;2023-02-28T06:46:15;5.80;;;4.73;;
76788;SDS011;65740;52.464;13.446;2023-02-28T06:48:42;6.80;;;5.47;;
76788;SDS011;65740;52.464;13.446;2023-02-28T06:51:14;5.17;;;4.67;;
76788;SDS011;65740;52.464;13.446;2023-02-28T06:53:42;4.67;;;4.27;;
76788;SDS011;65740;52.464;13.446;2023-02-28T06:56:12;5.40;;;4.90;;
76788;SDS011;65740;52.464;13.446;2023-02-28T06:58:39;4.70;;;4.30;;
76788;SDS011;65740;52.464;13.446;2023-02-28T07:01:05;4.20;;;3.80;;
76788;SDS011;65740;52.464;13.446;2023-02-28T07:03:31;5.40;;;4.90;;
76788;SDS011;65740;52.464;13.446;2023-02-28T07:05:57;4.50;;;4.10;;
76788;SDS011;65740;52.464;13.446;2023-02-28T07:08:24;5.07;;;4.57;;
76788;SDS011;65740;52.464;13.446;2023-02-28T07:10:52;4.60;;;4.20;;
76788;SDS011;65740;52.464;13.446;2023-02-28T07:13:18;5.17;;;4.30;;
76788;SDS011;65740;52.464;13.446;2023-02-28T07:15:44;4.40;;;4.00;;
76788;SDS011;65740;52.464;13.446;2023-02-28T07:18:09;4.83;;;3.90;;
76788;SDS011;65740;52.464;13.446;2023-02-28T07:20:35;4.03;;;3.67;;
76788;SDS011;65740;52.464;13.446;2023-02-28T07:23:00;4.50;;;4.10;;
76788;SDS011;65740;52.464;13.446;2023-02-28T07:25:27;4.27;;;3.87;;
76788;SDS011;65740;52.464;13.446;2023-02-28T07:27:54;4.23;;;3.83;;
76788;SDS011;65740;52.464;13.446;2023-02-28T07:30:20;3.57;;;3.23;;
76788;SDS011;65740;52.464;13.446;2023-02-28T07:32:46;4.20;;;3.80;;
76788;SDS011;65740;52.464;13.446;2023-02-28T07:35:12;4.60;;;4.20;;
76788;SDS011;65740;52.464;13.446;2023-02-28T07:37:40;4.63;;;3.97;;
76788;SDS011;65740;52.464;13.446;2023-02-28T07:40:07;4.40;;;4.00;;
76788;SDS011;65740;52.464;13.446;2023-02-28T07:42:36;4.43;;;3.50;;
76788;SDS011;65740;52.464;13.446;2023-02-28T07:45:02;4.77;;;4.37;;
76788;SDS011;65740;52.464;13.446;2023-02-28T07:47:29;4.23;;;3.80;;
76788;SDS011;65740;52.464;13.446;2023-02-28T07:49:56;3.67;;;3.37;;
76788;SDS011;65740;52.464;13.446;2023-02-28T07:52:22;4.70;;;3.97;;
76788;SDS011;65740;52.464;13.446;2023-02-28T07:54:48;5.37;;;3.83;;
76788;SDS011;65740;52.464;13.446;2023-02-28T07:57:14;5.43;;;3.93;;
76788;SDS011;65740;52.464;13.446;2023-02-28T07:59:40;3.40;;;3.10;;
76788;SDS011;65740;52.464;13.446;2023-02-28T08:02:06;4.20;;;3.80;;
76788;SDS011;65740;52.464;13.446;2023-02-28T08:04:32;4.30;;;3.90;;
76788;SDS011;65740;52.464;13.446;2023-02-28T08:06:58;5.90;;;4.37;;
76788;SDS011;65740;52.464;13.446;2023-02-28T08:09:23;7.93;;;4.30;;
76788;SDS011;65740;52.464;13.446;2023-02-28T08:11:49;6.23;;;4.20;;
76788;SDS011;65740;52.464;13.446;2023-02-28T08:14:14;5.30;;;4.30;;
76788;SDS011;65740;52.464;13.446;2023-02-28T08:16:40;7.13;;;3.53;;
76788;SDS011;65740;52.464;13.446;2023-02-28T08:19:07;6.93;;;4.43;;
76788;SDS011;65740;52.464;13.446;2023-02-28T08:21:33;5.20;;;4.00;;
76788;SDS011;65740;52.464;13.446;2023-02-28T08:23:59;5.73;;;4.27;;
76788;SDS011;65740;52.464;13.446;2023-02-28T08:26:25;4.67;;;3.83;;
76788;SDS011;65740;52.464;13.446;2023-02-28T08:28:51;6.00;;;3.80;;
76788;SDS011;65740;52.464;13.446;2023-02-28T08:31:17;7.60;;;3.97;;
76788;SDS011;65740;52.464;13.446;2023-02-28T08:33:43;5.00;;;4.07;;
76788;SDS011;65740;52.464;13.446;2023-02-28T08:36:09;8.37;;;3.63;;
76788;SDS011;65740;52.464;13.446;2023-02-28T08:38:36;7.40;;;3.27;;
76788;SDS011;65740;52.464;13.446;2023-02-28T08:41:06;10.13;;;4.47;;
76788;SDS011;65740;52.464;13.446;2023-02-28T08:43:34;7.17;;;4.23;;
76788;SDS011;65740;52.464;13.446;2023-02-28T08:46:00;6.20;;;3.80;;
76788;SDS011;65740;52.464;13.446;2023-02-28T08:48:27;7.37;;;3.80;;
76788;SDS011;65740;52.464;13.446;2023-02-28T08:50:58;10.53;;;4.30;;
76788;SDS011;65740;52.464;13.446;2023-02-28T08:53:25;5.40;;;3.80;;
76788;SDS011;65740;52.464;13.446;2023-02-28T08:56:00;6.43;;;3.80;;
76788;SDS011;65740;52.464;13.446;2023-02-28T08:58:46;6.83;;;3.90;;
76788;SDS011;65740;52.464;13.446;2023-02-28T09:03:38;3.57;;;3.27;;
76788;SDS011;65740;52.464;13.446;2023-02-28T09:06:05;7.67;;;4.33;;
76788;SDS011;65740;52.464;13.446;2023-02-28T09:08:31;8.60;;;3.67;;
76788;SDS011;65740;52.464;13.446;2023-02-28T09:10:57;4.40;;;3.60;;
76788;SDS011;65740;52.464;13.446;2023-02-28T09:13:24;7.83;;;3.70;;
76788;SDS011;65740;52.464;13.446;2023-02-28T09:15:51;8.30;;;4.17;;
76788;SDS011;65740;52.464;13.446;2023-02-28T09:18:16;8.60;;;3.87;;
76788;SDS011;65740;52.464;13.446;2023-02-28T09:20:42;9.17;;;3.70;;
76788;SDS011;65740;52.464;13.446;2023-02-28T09:23:09;5.63;;;3.80;;
76788;SDS011;65740;52.464;13.446;2023-02-28T09:25:36;7.10;;;4.20;;
76788;SDS011;65740;52.464;13.446;2023-02-28T09:28:02;4.07;;;3.67;;
76788;SDS011;65740;52.464;13.446;2023-02-28T09:30:28;10.53;;;4.03;;
76788;SDS011;65740;52.464;13.446;2023-02-28T09:32:54;6.77;;;4.10;;
76788;SDS011;65740;52.464;13.446;2023-02-28T09:35:20;7.13;;;3.60;;
76788;SDS011;65740;52.464;13.446;2023-02-28T09:37:47;9.10;;;3.90;;
76788;SDS011;65740;52.464;13.446;2023-02-28T09:40:17;7.50;;;3.63;;
76788;SDS011;65740;52.464;13.446;2023-02-28T09:42:47;7.67;;;3.47;;
76788;SDS011;65740;52.464;13.446;2023-02-28T09:45:38;9.23;;;3.57;;
76788;SDS011;65740;52.464;13.446;2023-02-28T09:48:14;5.80;;;3.47;;
76788;SDS011;65740;52.464;13.446;2023-02-28T09:50:50;3.93;;;2.90;;
76788;SDS011;65740;52.464;13.446;2023-02-28T09:55:48;6.40;;;3.60;;
76788;SDS011;65740;52.464;13.446;2023-02-28T09:58:23;6.90;;;3.60;;
76788;SDS011;65740;52.464;13.446;2023-02-28T10:01:00;7.10;;;3.17;;
76788;SDS011;65740;52.464;13.446;2023-02-28T10:03:34;3.80;;;2.97;;
76788;SDS011;65740;52.464;13.446;2023-02-28T10:06:17;4.63;;;3.30;;
76788;SDS011;65740;52.464;13.446;2023-02-28T10:11:24;6.30;;;3.40;;
76788;SDS011;65740;52.464;13.446;2023-02-28T10:14:05;4.87;;;2.77;;
76788;SDS011;65740;52.464;13.446;2023-02-28T10:16:39;7.50;;;3.67;;
76788;SDS011;65740;52.464;13.446;2023-02-28T10:22:01;6.20;;;3.27;;
76788;SDS011;65740;52.464;13.446;2023-02-28T10:24:56;4.30;;;3.20;;
76788;SDS011;65740;52.464;13.446;2023-02-28T10:27:34;3.57;;;3.10;;
76788;SDS011;65740;52.464;13.446;2023-02-28T10:30:00;3.87;;;2.73;;
76788;SDS011;65740;52.464;13.446;2023-02-28T10:32:29;4.03;;;2.87;;
76788;SDS011;65740;52.464;13.446;2023-02-28T10:37:38;5.67;;;3.10;;
76788;SDS011;65740;52.464;13.446;2023-02-28T10:40:29;5.47;;;3.00;;
76788;SDS011;65740;52.464;13.446;2023-02-28T10:43:03;4.47;;;3.07;;
76788;SDS011;65740;52.464;13.446;2023-02-28T10:45:54;4.50;;;2.73;;
76788;SDS011;65740;52.464;13.446;2023-02-28T10:48:26;3.50;;;2.83;;
76788;SDS011;65740;52.464;13.446;2023-02-28T10:50:55;5.33;;;3.33;;
76788;SDS011;65740;52.464;13.446;2023-02-28T10:56:01;4.10;;;3.20;;
76788;SDS011;65740;52.464;13.446;2023-02-28T11:01:26;7.50;;;3.17;;
76788;SDS011;65740;52.464;13.446;2023-02-28T11:04:19;4.10;;;3.17;;
76788;SDS011;65740;52.464;13.446;2023-02-28T11:06:51;3.23;;;2.93;;
76788;SDS011;65740;52.464;13.446;2023-02-28T11:09:38;7.70;;;3.10;;
76788;SDS011;65740;52.464;13.446;2023-02-28T11:12:05;7.73;;;3.20;;
76788;SDS011;65740;52.464;13.446;2023-02-28T11:14:40;5.00;;;2.90;;
76788;SDS011;65740;52.464;13.446;2023-02-28T11:17:15;5.17;;;3.00;;
76788;SDS011;65740;52.464;13.446;2023-02-28T11:19:47;5.30;;;2.70;;
76788;SDS011;65740;52.464;13.446;2023-02-28T11:22:18;8.20;;;3.30;;
76788;SDS011;65740;52.464;13.446;2023-02-28T11:24:47;4.30;;;2.83;;
76788;SDS011;65740;52.464;13.446;2023-02-28T11:27:26;5.73;;;2.80;;
76788;SDS011;65740;52.464;13.446;2023-02-28T11:33:21;6.90;;;3.13;;
76788;SDS011;65740;52.464;13.446;2023-02-28T11:35:59;4.63;;;3.37;;
76788;SDS011;65740;52.464;13.446;2023-02-28T11:38:28;3.50;;;2.80;;
76788;SDS011;65740;52.464;13.446;2023-02-28T11:51:33;6.83;;;3.00;;
76788;SDS011;65740;52.464;13.446;2023-02-28T11:56:46;19.97;;;13.70;;
76788;SDS011;65740;52.464;13.446;2023-02-28T12:10:38;14.53;;;10.50;;
76788;SDS011;65740;52.464;13.446;2023-02-28T12:24:26;19.67;;;13.10;;
76788;SDS011;65740;52.464;13.446;2023-02-28T12:27:00;18.20;;;13.83;;
76788;SDS011;65740;52.464;13.446;2023-02-28T12:29:36;18.70;;;13.33;;
76788;SDS011;65740;52.464;13.446;2023-02-28T12:34:55;21.57;;;15.40;;
76788;SDS011;65740;52.464;13.446;2023-02-28T12:37:40;19.50;;;15.97;;
76788;SDS011;65740;52.464;13.446;2023-02-28T12:40:12;21.90;;;15.33;;
76788;SDS011;65740;52.464;13.446;2023-02-28T12:42:55;17.47;;;14.17;;
76788;SDS011;65740;52.464;13.446;2023-02-28T12:45:44;17.97;;;13.07;;
76788;SDS011;65740;52.464;13.446;2023-02-28T12:48:37;16.03;;;13.73;;
76788;SDS011;65740;52.464;13.446;2023-02-28T12:50:59;22.20;;;14.43;;
76788;SDS011;65740;52.464;13.446;2023-02-28T13:01:57;19.87;;;11.37;;
76788;SDS011;65740;52.464;13.446;2023-02-28T13:10:06;16.50;;;10.70;;
76788;SDS011;65740;52.464;13.446;2023-02-28T13:12:33;15.70;;;10.20;;
76788;SDS011;65740;52.464;13.446;2023-02-28T13:18:03;17.40;;;10.50;;
76788;SDS011;65740;52.464;13.446;2023-02-28T13:20:37;15.00;;;9.07;;
76788;SDS011;65740;52.464;13.446;2023-02-28T13:26:06;12.27;;;9.90;;
76788;SDS011;65740;52.464;13.446;2023-02-28T13:31:18;12.23;;;10.03;;
76788;SDS011;65740;52.464;13.446;2023-02-28T13:44:09;15.53;;;8.63;;
76788;SDS011;65740;52.464;13.446;2023-02-28T13:52:08;10.40;;;7.80;;
76788;SDS011;65740;52.464;13.446;2023-02-28T14:11:35;11.57;;;6.70;;
76788;SDS011;65740;52.464;13.446;2023-02-28T14:14:03;14.90;;;7.70;;
76788;SDS011;65740;52.464;13.446;2023-02-28T14:16:39;9.70;;;7.17;;
76788;SDS011;65740;52.464;13.446;2023-02-28T14:19:12;9.23;;;5.90;;
76788;SDS011;65740;52.464;13.446;2023-02-28T14:21:50;8.60;;;6.70;;
76788;SDS011;65740;52.464;13.446;2023-02-28T14:24:35;8.57;;;6.13;;
76788;SDS011;65740;52.464;13.446;2023-02-28T14:27:35;14.17;;;7.20;;
76788;SDS011;65740;52.464;13.446;2023-02-28T14:33:09;8.63;;;6.63;;
76788;SDS011;65740;52.464;13.446;2023-02-28T14:38:30;9.57;;;6.33;;
76788;SDS011;65740;52.464;13.446;2023-02-28T14:41:02;10.87;;;5.90;;
76788;SDS011;65740;52.464;13.446;2023-02-28T14:43:31;9.63;;;6.17;;
76788;SDS011;65740;52.464;13.446;2023-02-28T14:45:58;11.10;;;6.47;;
76788;SDS011;65740;52.464;13.446;2023-02-28T14:48:26;8.20;;;5.80;;
76788;SDS011;65740;52.464;13.446;2023-02-28T14:50:53;9.10;;;6.50;;
76788;SDS011;65740;52.464;13.446;2023-02-28T14:53:22;7.63;;;6.03;;
76788;SDS011;65740;52.464;13.446;2023-02-28T14:55:51;6.43;;;5.50;;
76788;SDS011;65740;52.464;13.446;2023-02-28T14:58:25;6.80;;;5.60;;
76788;SDS011;65740;52.464;13.446;2023-02-28T15:00:53;7.60;;;5.23;;
76788;SDS011;65740;52.464;13.446;2023-02-28T15:03:29;5.83;;;5.20;;
76788;SDS011;65740;52.464;13.446;2023-02-28T15:06:01;8.23;;;5.60;;
76788;SDS011;65740;52.464;13.446;2023-02-28T15:08:38;8.90;;;5.87;;
76788;SDS011;65740;52.464;13.446;2023-02-28T15:11:05;8.27;;;5.17;;
76788;SDS011;65740;52.464;13.446;2023-02-28T15:13:50;6.43;;;4.93;;
76788;SDS011;65740;52.464;13.446;2023-02-28T15:16:18;6.20;;;5.20;;
76788;SDS011;65740;52.464;13.446;2023-02-28T15:18:56;6.07;;;4.77;;
76788;SDS011;65740;52.464;13.446;2023-02-28T15:21:33;9.10;;;5.60;;
76788;SDS011;65740;52.464;13.446;2023-02-28T15:26:34;6.90;;;5.03;;
76788;SDS011;65740;52.464;13.446;2023-02-28T15:29:05;10.73;;;7.37;;
76788;SDS011;65740;52.464;13.446;2023-02-28T15:31:33;13.83;;;5.97;;
76788;SDS011;65740;52.464;13.446;2023-02-28T15:34:06;9.60;;;6.30;;
76788;SDS011;65740;52.464;13.446;2023-02-28T15:36:40;8.10;;;7.13;;
76788;SDS011;65740;52.464;13.446;2023-02-28T15:39:19;12.03;;;6.80;;
76788;SDS011;65740;52.464;13.446;2023-02-28T15:41:47;8.13;;;6.37;;
76788;SDS011;65740;52.464;13.446;2023-02-28T15:49:47;10.23;;;6.07;;
76788;SDS011;65740;52.464;13.446;2023-02-28T15:52:17;9.97;;;5.83;;
76788;SDS011;65740;52.464;13.446;2023-02-28T15:54:46;7.33;;;5.67;;
76788;SDS011;65740;52.464;13.446;2023-02-28T15:57:20;7.97;;;6.10;;
76788;SDS011;65740;52.464;13.446;2023-02-28T15:59:51;7.30;;;5.67;;
76788;SDS011;65740;52.464;13.446;2023-02-28T16:02:21;9.50;;;6.27;;
76788;SDS011;65740;52.464;13.446;2023-02-28T16:05:12;9.93;;;5.77;;
76788;SDS011;65740;52.464;13.446;2023-02-28T16:07:45;10.27;;;6.23;;
76788;SDS011;65740;52.464;13.446;2023-02-28T16:10:13;10.17;;;5.17;;
76788;SDS011;65740;52.464;13.446;2023-02-28T16:12:39;8.50;;;5.13;;
76788;SDS011;65740;52.464;13.446;2023-02-28T16:15:08;7.03;;;5.60;;
76788;SDS011;65740;52.464;13.446;2023-02-28T16:17:44;5.17;;;4.67;;
76788;SDS011;65740;52.464;13.446;2023-02-28T16:20:32;7.97;;;5.30;;
76788;SDS011;65740;52.464;13.446;2023-02-28T16:22:57;7.90;;;5.27;;
76788;SDS011;65740;52.464;13.446;2023-02-28T16:25:28;7.17;;;5.00;;
76788;SDS011;65740;52.464;13.446;2023-02-28T16:27:59;10.63;;;5.30;;
76788;SDS011;65740;52.464;13.446;2023-02-28T16:30:26;6.60;;;4.90;;
76788;SDS011;65740;52.464;13.446;2023-02-28T16:32:54;8.63;;;4.70;;
76788;SDS011;65740;52.464;13.446;2023-02-28T16:35:20;10.03;;;5.60;;
76788;SDS011;65740;52.464;13.446;2023-02-28T16:37:46;5.30;;;4.80;;
76788;SDS011;65740;52.464;13.446;2023-02-28T16:40:16;6.70;;;4.80;;
76788;SDS011;65740;52.464;13.446;2023-02-28T16:42:45;6.83;;;4.40;;
76788;SDS011;65740;52.464;13.446;2023-02-28T16:45:31;9.37;;;4.40;;
76788;SDS011;65740;52.464;13.446;2023-02-28T16:47:56;5.00;;;4.57;;
76788;SDS011;65740;52.464;13.446;2023-02-28T16:50:23;6.67;;;4.70;;
76788;SDS011;65740;52.464;13.446;2023-02-28T16:52:53;4.80;;;4.40;;
76788;SDS011;65740;52.464;13.446;2023-02-28T16:55:19;7.77;;;5.03;;
76788;SDS011;65740;52.464;13.446;2023-02-28T16:57:48;4.60;;;4.20;;
76788;SDS011;65740;52.464;13.446;2023-02-28T17:00:20;5.00;;;3.93;;
76788;SDS011;65740;52.464;13.446;2023-02-28T17:02:46;6.30;;;4.37;;
76788;SDS011;65740;52.464;13.446;2023-02-28T17:05:12;6.23;;;4.33;;
76788;SDS011;65740;52.464;13.446;2023-02-28T17:07:39;4.67;;;4.17;;
76788;SDS011;65740;52.464;13.446;2023-02-28T17:10:10;4.50;;;4.10;;
76788;SDS011;65740;52.464;13.446;2023-02-28T17:12:42;4.40;;;3.87;;
76788;SDS011;65740;52.464;13.446;2023-02-28T17:15:09;4.17;;;3.77;;
76788;SDS011;65740;52.464;13.446;2023-02-28T17:17:36;6.10;;;4.43;;
76788;SDS011;65740;52.464;13.446;2023-02-28T17:20:02;4.23;;;3.83;;
76788;SDS011;65740;52.464;13.446;2023-02-28T17:22:28;4.90;;;4.00;;
76788;SDS011;65740;52.464;13.446;2023-02-28T17:24:53;5.30;;;3.70;;
76788;SDS011;65740;52.464;13.446;2023-02-28T17:27:24;5.20;;;4.47;;